sensor_id;sensor_type;location;lat;lon;timestamp;P1;durP1;ratioP1;P2;durP2;ratioP2
25511;SDS011;13414;44.534;18.700;2023-05-14T00:00:57;32.00;;;19.05;;
25511;SDS011;13414;44.534;18.700;2023-05-14T00:03:24;30.25;;;19.10;;
25511;SDS011;13414;44.534;18.700;2023-05-14T00:05:52;30.55;;;18.35;;
25511;SDS011;13414;44.534;18.700;2023-05-14T00:08:19;26.70;;;17.30;;
25511;SDS011;13414;44.534;18.700;2023-05-14T00:10:46;26.23;;;18.17;;
25511;SDS011;13414;44.534;18.700;2023-05-14T00:13:15;25.70;;;18.10;;
25511;SDS011;13414;44.534;18.700;2023-05-14T00:15:42;27.15;;;18.50;;
25511;SDS011;13414;44.534;18.700;2023-05-14T00:18:10;23.95;;;17.65;;
25511;SDS011;13414;44.534;18.700;2023-05-14T00:20:37;35.13;;;24.08;;
25511;SDS011;13414;44.534;18.700;2023-05-14T00:23:05;26.45;;;17.25;;
25511;SDS011;13414;44.534;18.700;2023-05-14T00:25:32;23.00;;;17.30;;
25511;SDS011;13414;44.534;18.700;2023-05-14T00:28:00;23.45;;;17.13;;
25511;SDS011;13414;44.534;18.700;2023-05-14T00:30:28;30.27;;;19.98;;
25511;SDS011;13414;44.534;18.700;2023-05-14T00:32:56;31.55;;;20.83;;
25511;SDS011;13414;44.534;18.700;2023-05-14T00:35:23;32.10;;;21.05;;
25511;SDS011;13414;44.534;18.700;2023-05-14T00:37:50;25.50;;;18.35;;
25511;SDS011;13414;44.534;18.700;2023-05-14T00:40:18;34.83;;;22.55;;
25511;SDS011;13414;44.534;18.700;2023-05-14T00:42:46;27.48;;;18.35;;
25511;SDS011;13414;44.534;18.700;2023-05-14T00:45:13;29.50;;;17.40;;
25511;SDS011;13414;44.534;18.700;2023-05-14T00:47:42;24.00;;;17.58;;
25511;SDS011;13414;44.534;18.700;2023-05-14T00:50:10;25.05;;;16.75;;
25511;SDS011;13414;44.534;18.700;2023-05-14T00:52:37;22.92;;;17.25;;
25511;SDS011;13414;44.534;18.700;2023-05-14T00:55:06;25.88;;;17.88;;
25511;SDS011;13414;44.534;18.700;2023-05-14T00:57:36;27.17;;;18.42;;
25511;SDS011;13414;44.534;18.700;2023-05-14T01:00:04;26.42;;;17.70;;
25511;SDS011;13414;44.534;18.700;2023-05-14T01:02:33;26.70;;;18.05;;
25511;SDS011;13414;44.534;18.700;2023-05-14T01:05:02;28.20;;;18.02;;
25511;SDS011;13414;44.534;18.700;2023-05-14T01:07:32;29.23;;;18.17;;
25511;SDS011;13414;44.534;18.700;2023-05-14T01:10:16;29.60;;;19.07;;
25511;SDS011;13414;44.534;18.700;2023-05-14T01:12:51;31.70;;;18.65;;
25511;SDS011;13414;44.534;18.700;2023-05-14T01:15:27;35.47;;;18.90;;
25511;SDS011;13414;44.534;18.700;2023-05-14T01:17:58;31.20;;;17.55;;
25511;SDS011;13414;44.534;18.700;2023-05-14T01:20:28;26.88;;;16.50;;
25511;SDS011;13414;44.534;18.700;2023-05-14T01:22:57;25.25;;;14.98;;
25511;SDS011;13414;44.534;18.700;2023-05-14T01:25:25;25.60;;;15.95;;
25511;SDS011;13414;44.534;18.700;2023-05-14T01:27:55;24.17;;;15.88;;
25511;SDS011;13414;44.534;18.700;2023-05-14T01:30:30;23.70;;;15.55;;
25511;SDS011;13414;44.534;18.700;2023-05-14T01:33:01;23.75;;;15.65;;
25511;SDS011;13414;44.534;18.700;2023-05-14T01:35:31;19.67;;;14.90;;
25511;SDS011;13414;44.534;18.700;2023-05-14T01:38:01;21.45;;;14.32;;
25511;SDS011;13414;44.534;18.700;2023-05-14T01:40:30;23.33;;;16.00;;
25511;SDS011;13414;44.534;18.700;2023-05-14T01:42:59;23.08;;;15.15;;
25511;SDS011;13414;44.534;18.700;2023-05-14T01:45:28;24.88;;;15.63;;
25511;SDS011;13414;44.534;18.700;2023-05-14T01:47:57;27.35;;;14.80;;
25511;SDS011;13414;44.534;18.700;2023-05-14T01:50:25;19.77;;;13.50;;
25511;SDS011;13414;44.534;18.700;2023-05-14T01:52:52;18.27;;;13.13;;
25511;SDS011;13414;44.534;18.700;2023-05-14T01:55:22;19.58;;;13.55;;
25511;SDS011;13414;44.534;18.700;2023-05-14T01:57:50;21.88;;;12.90;;
25511;SDS011;13414;44.534;18.700;2023-05-14T02:00:17;20.00;;;12.63;;
25511;SDS011;13414;44.534;18.700;2023-05-14T02:02:45;16.35;;;11.93;;
25511;SDS011;13414;44.534;18.700;2023-05-14T02:05:12;16.80;;;11.55;;
25511;SDS011;13414;44.534;18.700;2023-05-14T02:07:40;15.32;;;11.07;;
25511;SDS011;13414;44.534;18.700;2023-05-14T02:10:08;18.70;;;11.20;;
25511;SDS011;13414;44.534;18.700;2023-05-14T02:12:37;20.40;;;11.32;;
25511;SDS011;13414;44.534;18.700;2023-05-14T02:15:05;15.43;;;10.63;;
25511;SDS011;13414;44.534;18.700;2023-05-14T02:17:35;22.02;;;10.48;;
25511;SDS011;13414;44.534;18.700;2023-05-14T02:20:02;14.07;;;10.02;;
25511;SDS011;13414;44.534;18.700;2023-05-14T02:22:31;15.45;;;10.20;;
25511;SDS011;13414;44.534;18.700;2023-05-14T02:24:58;13.50;;;9.77;;
25511;SDS011;13414;44.534;18.700;2023-05-14T02:27:26;15.07;;;9.57;;
25511;SDS011;13414;44.534;18.700;2023-05-14T02:29:55;15.73;;;9.77;;
25511;SDS011;13414;44.534;18.700;2023-05-14T02:32:25;13.63;;;9.63;;
25511;SDS011;13414;44.534;18.700;2023-05-14T02:34:52;13.43;;;9.52;;
25511;SDS011;13414;44.534;18.700;2023-05-14T02:37:20;13.77;;;9.30;;
25511;SDS011;13414;44.534;18.700;2023-05-14T02:39:47;13.23;;;9.10;;
25511;SDS011;13414;44.534;18.700;2023-05-14T02:42:15;13.40;;;9.45;;
25511;SDS011;13414;44.534;18.700;2023-05-14T02:44:42;14.57;;;9.95;;
25511;SDS011;13414;44.534;18.700;2023-05-14T02:47:11;17.63;;;10.13;;
25511;SDS011;13414;44.534;18.700;2023-05-14T02:49:39;16.25;;;10.10;;
25511;SDS011;13414;44.534;18.700;2023-05-14T02:52:06;11.25;;;8.25;;
25511;SDS011;13414;44.534;18.700;2023-05-14T02:54:35;11.02;;;8.63;;
25511;SDS011;13414;44.534;18.700;2023-05-14T02:57:02;12.40;;;9.25;;
25511;SDS011;13414;44.534;18.700;2023-05-14T02:59:30;12.60;;;8.77;;
25511;SDS011;13414;44.534;18.700;2023-05-14T03:01:57;14.55;;;8.95;;
25511;SDS011;13414;44.534;18.700;2023-05-14T03:04:26;12.15;;;7.97;;
25511;SDS011;13414;44.534;18.700;2023-05-14T03:06:54;13.02;;;8.65;;
25511;SDS011;13414;44.534;18.700;2023-05-14T03:09:21;13.88;;;8.60;;
25511;SDS011;13414;44.534;18.700;2023-05-14T03:11:49;12.73;;;8.68;;
25511;SDS011;13414;44.534;18.700;2023-05-14T03:14:16;14.70;;;8.38;;
25511;SDS011;13414;44.534;18.700;2023-05-14T03:16:43;12.45;;;8.10;;
25511;SDS011;13414;44.534;18.700;2023-05-14T03:19:11;11.48;;;8.52;;
25511;SDS011;13414;44.534;18.700;2023-05-14T03:21:40;12.57;;;9.15;;
25511;SDS011;13414;44.534;18.700;2023-05-14T03:24:07;16.27;;;9.02;;
25511;SDS011;13414;44.534;18.700;2023-05-14T03:26:36;14.05;;;9.23;;
25511;SDS011;13414;44.534;18.700;2023-05-14T03:29:03;14.35;;;9.82;;
25511;SDS011;13414;44.534;18.700;2023-05-14T03:31:31;15.38;;;9.85;;
25511;SDS011;13414;44.534;18.700;2023-05-14T03:33:58;16.52;;;10.02;;
25511;SDS011;13414;44.534;18.700;2023-05-14T03:36:26;15.20;;;10.52;;
25511;SDS011;13414;44.534;18.700;2023-05-14T03:38:55;14.43;;;9.60;;
25511;SDS011;13414;44.534;18.700;2023-05-14T03:41:22;13.13;;;9.52;;
25511;SDS011;13414;44.534;18.700;2023-05-14T03:43:50;12.43;;;9.38;;
25511;SDS011;13414;44.534;18.700;2023-05-14T03:46:18;12.40;;;8.88;;
25511;SDS011;13414;44.534;18.700;2023-05-14T03:48:45;13.48;;;9.27;;
25511;SDS011;13414;44.534;18.700;2023-05-14T03:51:13;12.63;;;8.70;;
25511;SDS011;13414;44.534;18.700;2023-05-14T03:53:40;10.57;;;8.18;;
25511;SDS011;13414;44.534;18.700;2023-05-14T03:56:10;10.13;;;8.02;;
25511;SDS011;13414;44.534;18.700;2023-05-14T03:58:38;11.73;;;8.05;;
25511;SDS011;13414;44.534;18.700;2023-05-14T04:01:05;16.10;;;8.18;;
25511;SDS011;13414;44.534;18.700;2023-05-14T04:03:33;12.75;;;7.53;;
25511;SDS011;13414;44.534;18.700;2023-05-14T04:06:00;12.60;;;7.53;;
25511;SDS011;13414;44.534;18.700;2023-05-14T04:08:28;11.65;;;7.05;;
25511;SDS011;13414;44.534;18.700;2023-05-14T04:10:55;11.80;;;6.88;;
25511;SDS011;13414;44.534;18.700;2023-05-14T04:13:24;11.48;;;6.57;;
25511;SDS011;13414;44.534;18.700;2023-05-14T04:15:52;8.88;;;6.03;;
25511;SDS011;13414;44.534;18.700;2023-05-14T04:18:20;10.07;;;6.53;;
25511;SDS011;13414;44.534;18.700;2023-05-14T04:20:47;11.02;;;6.45;;
25511;SDS011;13414;44.534;18.700;2023-05-14T04:23:15;9.55;;;6.35;;
25511;SDS011;13414;44.534;18.700;2023-05-14T04:25:42;10.23;;;6.13;;
25511;SDS011;13414;44.534;18.700;2023-05-14T04:28:10;7.68;;;5.53;;
25511;SDS011;13414;44.534;18.700;2023-05-14T04:30:38;6.47;;;5.18;;
25511;SDS011;13414;44.534;18.700;2023-05-14T04:33:06;10.55;;;5.25;;
25511;SDS011;13414;44.534;18.700;2023-05-14T04:35:33;7.63;;;5.63;;
25511;SDS011;13414;44.534;18.700;2023-05-14T04:38:01;8.30;;;5.95;;
25511;SDS011;13414;44.534;18.700;2023-05-14T04:40:28;8.00;;;5.57;;
25511;SDS011;13414;44.534;18.700;2023-05-14T04:42:56;9.55;;;6.18;;
25511;SDS011;13414;44.534;18.700;2023-05-14T04:45:23;10.35;;;6.97;;
25511;SDS011;13414;44.534;18.700;2023-05-14T04:47:52;9.98;;;6.45;;
25511;SDS011;13414;44.534;18.700;2023-05-14T04:50:20;10.48;;;6.20;;
25511;SDS011;13414;44.534;18.700;2023-05-14T04:52:47;9.18;;;5.90;;
25511;SDS011;13414;44.534;18.700;2023-05-14T04:55:15;12.10;;;6.22;;
25511;SDS011;13414;44.534;18.700;2023-05-14T04:57:42;13.82;;;7.53;;
25511;SDS011;13414;44.534;18.700;2023-05-14T05:00:10;10.15;;;6.72;;
25511;SDS011;13414;44.534;18.700;2023-05-14T05:02:38;8.85;;;7.32;;
25511;SDS011;13414;44.534;18.700;2023-05-14T05:05:08;23.35;;;8.45;;
25511;SDS011;13414;44.534;18.700;2023-05-14T05:07:35;9.57;;;6.55;;
25511;SDS011;13414;44.534;18.700;2023-05-14T05:10:03;16.08;;;5.90;;
25511;SDS011;13414;44.534;18.700;2023-05-14T05:12:31;7.60;;;6.25;;
25511;SDS011;13414;44.534;18.700;2023-05-14T05:14:59;8.23;;;6.40;;
25511;SDS011;13414;44.534;18.700;2023-05-14T05:17:27;11.10;;;6.68;;
25511;SDS011;13414;44.534;18.700;2023-05-14T05:19:55;10.30;;;7.22;;
25511;SDS011;13414;44.534;18.700;2023-05-14T05:22:24;9.63;;;6.85;;
25511;SDS011;13414;44.534;18.700;2023-05-14T05:24:52;8.95;;;6.68;;
25511;SDS011;13414;44.534;18.700;2023-05-14T05:27:19;10.43;;;7.15;;
25511;SDS011;13414;44.534;18.700;2023-05-14T05:29:47;10.82;;;7.00;;
25511;SDS011;13414;44.534;18.700;2023-05-14T05:32:14;9.43;;;6.03;;
25511;SDS011;13414;44.534;18.700;2023-05-14T05:34:41;10.32;;;6.57;;
25511;SDS011;13414;44.534;18.700;2023-05-14T05:37:09;9.02;;;6.43;;
25511;SDS011;13414;44.534;18.700;2023-05-14T05:39:40;9.43;;;6.32;;
25511;SDS011;13414;44.534;18.700;2023-05-14T05:42:07;7.22;;;5.88;;
25511;SDS011;13414;44.534;18.700;2023-05-14T05:44:35;11.48;;;6.05;;
25511;SDS011;13414;44.534;18.700;2023-05-14T05:47:02;9.15;;;6.30;;
25511;SDS011;13414;44.534;18.700;2023-05-14T05:49:30;9.13;;;5.90;;
25511;SDS011;13414;44.534;18.700;2023-05-14T05:51:58;6.50;;;5.90;;
25511;SDS011;13414;44.534;18.700;2023-05-14T05:54:25;8.48;;;5.57;;
25511;SDS011;13414;44.534;18.700;2023-05-14T05:56:54;7.63;;;5.15;;
25511;SDS011;13414;44.534;18.700;2023-05-14T05:59:21;7.18;;;5.25;;
25511;SDS011;13414;44.534;18.700;2023-05-14T06:01:50;7.78;;;6.10;;
25511;SDS011;13414;44.534;18.700;2023-05-14T06:04:17;8.57;;;6.28;;
25511;SDS011;13414;44.534;18.700;2023-05-14T06:06:45;8.07;;;6.15;;
25511;SDS011;13414;44.534;18.700;2023-05-14T06:09:12;9.13;;;6.28;;
25511;SDS011;13414;44.534;18.700;2023-05-14T06:11:40;10.18;;;5.47;;
25511;SDS011;13414;44.534;18.700;2023-05-14T06:14:09;8.10;;;5.75;;
25511;SDS011;13414;44.534;18.700;2023-05-14T06:16:36;9.15;;;6.15;;
25511;SDS011;13414;44.534;18.700;2023-05-14T06:19:03;7.30;;;5.72;;
25511;SDS011;13414;44.534;18.700;2023-05-14T06:21:32;8.25;;;5.40;;
25511;SDS011;13414;44.534;18.700;2023-05-14T06:24:00;7.25;;;5.95;;
25511;SDS011;13414;44.534;18.700;2023-05-14T06:26:27;9.13;;;5.95;;
25511;SDS011;13414;44.534;18.700;2023-05-14T06:28:55;8.23;;;5.53;;
25511;SDS011;13414;44.534;18.700;2023-05-14T06:31:24;9.63;;;5.32;;
25511;SDS011;13414;44.534;18.700;2023-05-14T06:33:52;8.30;;;5.38;;
25511;SDS011;13414;44.534;18.700;2023-05-14T06:36:19;7.97;;;5.43;;
25511;SDS011;13414;44.534;18.700;2023-05-14T06:38:47;7.72;;;5.25;;
25511;SDS011;13414;44.534;18.700;2023-05-14T06:41:14;8.55;;;5.80;;
25511;SDS011;13414;44.534;18.700;2023-05-14T06:43:42;8.25;;;6.30;;
25511;SDS011;13414;44.534;18.700;2023-05-14T06:46:10;10.27;;;6.45;;
25511;SDS011;13414;44.534;18.700;2023-05-14T06:48:39;9.43;;;7.20;;
25511;SDS011;13414;44.534;18.700;2023-05-14T06:51:07;8.40;;;6.40;;
25511;SDS011;13414;44.534;18.700;2023-05-14T06:53:35;11.35;;;6.68;;
25511;SDS011;13414;44.534;18.700;2023-05-14T06:56:02;8.40;;;6.45;;
25511;SDS011;13414;44.534;18.700;2023-05-14T06:58:30;8.35;;;5.65;;
25511;SDS011;13414;44.534;18.700;2023-05-14T07:00:57;7.28;;;5.28;;
25511;SDS011;13414;44.534;18.700;2023-05-14T07:03:25;8.82;;;6.47;;
25511;SDS011;13414;44.534;18.700;2023-05-14T07:05:54;12.13;;;8.80;;
25511;SDS011;13414;44.534;18.700;2023-05-14T07:08:22;6.28;;;5.25;;
25511;SDS011;13414;44.534;18.700;2023-05-14T07:10:50;8.40;;;6.10;;
25511;SDS011;13414;44.534;18.700;2023-05-14T07:13:17;7.85;;;4.80;;
25511;SDS011;13414;44.534;18.700;2023-05-14T07:15:45;7.65;;;5.03;;
25511;SDS011;13414;44.534;18.700;2023-05-14T07:18:12;9.13;;;5.38;;
25511;SDS011;13414;44.534;18.700;2023-05-14T07:20:39;6.90;;;4.78;;
25511;SDS011;13414;44.534;18.700;2023-05-14T07:23:08;12.50;;;5.13;;
25511;SDS011;13414;44.534;18.700;2023-05-14T07:25:36;8.85;;;4.30;;
25511;SDS011;13414;44.534;18.700;2023-05-14T07:28:03;5.35;;;3.70;;
25511;SDS011;13414;44.534;18.700;2023-05-14T07:30:31;7.45;;;4.15;;
25511;SDS011;13414;44.534;18.700;2023-05-14T07:32:58;7.38;;;4.05;;
25511;SDS011;13414;44.534;18.700;2023-05-14T07:35:26;6.43;;;4.07;;
25511;SDS011;13414;44.534;18.700;2023-05-14T07:37:53;7.78;;;4.40;;
25511;SDS011;13414;44.534;18.700;2023-05-14T07:40:22;5.82;;;3.60;;
25511;SDS011;13414;44.534;18.700;2023-05-14T07:42:50;22.42;;;4.47;;
25511;SDS011;13414;44.534;18.700;2023-05-14T07:45:18;6.63;;;4.28;;
25511;SDS011;13414;44.534;18.700;2023-05-14T07:47:45;6.03;;;3.83;;
25511;SDS011;13414;44.534;18.700;2023-05-14T07:50:16;6.85;;;5.20;;
25511;SDS011;13414;44.534;18.700;2023-05-14T07:52:43;9.10;;;4.65;;
25511;SDS011;13414;44.534;18.700;2023-05-14T07:55:11;7.45;;;5.07;;
25511;SDS011;13414;44.534;18.700;2023-05-14T07:57:40;7.82;;;4.25;;
25511;SDS011;13414;44.534;18.700;2023-05-14T08:00:08;7.25;;;4.10;;
25511;SDS011;13414;44.534;18.700;2023-05-14T08:02:39;8.18;;;4.60;;
25511;SDS011;13414;44.534;18.700;2023-05-14T08:05:07;11.48;;;5.13;;
25511;SDS011;13414;44.534;18.700;2023-05-14T08:07:34;6.13;;;4.10;;
25511;SDS011;13414;44.534;18.700;2023-05-14T08:10:02;6.68;;;4.18;;
25511;SDS011;13414;44.534;18.700;2023-05-14T08:12:31;8.30;;;4.10;;
25511;SDS011;13414;44.534;18.700;2023-05-14T08:15:00;10.20;;;3.55;;
25511;SDS011;13414;44.534;18.700;2023-05-14T08:17:27;9.85;;;4.10;;
25511;SDS011;13414;44.534;18.700;2023-05-14T08:19:55;5.05;;;4.03;;
25511;SDS011;13414;44.534;18.700;2023-05-14T08:22:22;5.47;;;3.65;;
25511;SDS011;13414;44.534;18.700;2023-05-14T08:24:49;5.63;;;3.75;;
25511;SDS011;13414;44.534;18.700;2023-05-14T08:27:17;6.25;;;3.58;;
25511;SDS011;13414;44.534;18.700;2023-05-14T08:29:45;5.80;;;3.50;;
25511;SDS011;13414;44.534;18.700;2023-05-14T08:32:15;4.38;;;3.35;;
25511;SDS011;13414;44.534;18.700;2023-05-14T08:34:42;5.97;;;3.63;;
25511;SDS011;13414;44.534;18.700;2023-05-14T08:37:10;30.20;;;20.55;;
25511;SDS011;13414;44.534;18.700;2023-05-14T08:39:37;6.70;;;3.80;;
25511;SDS011;13414;44.534;18.700;2023-05-14T08:42:05;5.00;;;3.38;;
25511;SDS011;13414;44.534;18.700;2023-05-14T08:44:35;4.53;;;3.17;;
25511;SDS011;13414;44.534;18.700;2023-05-14T08:47:08;8.37;;;4.27;;
25511;SDS011;13414;44.534;18.700;2023-05-14T08:49:40;5.50;;;3.78;;
25511;SDS011;13414;44.534;18.700;2023-05-14T08:52:09;5.50;;;3.33;;
25511;SDS011;13414;44.534;18.700;2023-05-14T08:54:36;6.78;;;3.72;;
25511;SDS011;13414;44.534;18.700;2023-05-14T08:57:04;8.73;;;4.45;;
25511;SDS011;13414;44.534;18.700;2023-05-14T08:59:34;7.20;;;3.80;;
25511;SDS011;13414;44.534;18.700;2023-05-14T09:02:02;5.53;;;3.67;;
25511;SDS011;13414;44.534;18.700;2023-05-14T09:04:32;6.18;;;3.55;;
25511;SDS011;13414;44.534;18.700;2023-05-14T09:07:01;6.65;;;3.40;;
25511;SDS011;13414;44.534;18.700;2023-05-14T09:09:30;5.63;;;3.63;;
25511;SDS011;13414;44.534;18.700;2023-05-14T09:11:59;6.75;;;3.55;;
25511;SDS011;13414;44.534;18.700;2023-05-14T09:14:27;5.30;;;3.20;;
25511;SDS011;13414;44.534;18.700;2023-05-14T09:16:54;7.18;;;3.83;;
25511;SDS011;13414;44.534;18.700;2023-05-14T09:19:22;7.15;;;4.20;;
25511;SDS011;13414;44.534;18.700;2023-05-14T09:21:50;6.10;;;4.00;;
25511;SDS011;13414;44.534;18.700;2023-05-14T09:24:19;6.55;;;2.95;;
25511;SDS011;13414;44.534;18.700;2023-05-14T09:26:48;7.22;;;3.55;;
25511;SDS011;13414;44.534;18.700;2023-05-14T09:29:17;7.95;;;3.30;;
25511;SDS011;13414;44.534;18.700;2023-05-14T09:31:44;8.00;;;4.28;;
25511;SDS011;13414;44.534;18.700;2023-05-14T09:34:11;6.45;;;3.30;;
25511;SDS011;13414;44.534;18.700;2023-05-14T09:36:49;4.35;;;3.35;;
25511;SDS011;13414;44.534;18.700;2023-05-14T09:39:23;5.60;;;3.42;;
25511;SDS011;13414;44.534;18.700;2023-05-14T09:41:51;6.90;;;3.10;;
25511;SDS011;13414;44.534;18.700;2023-05-14T09:44:20;4.65;;;3.25;;
25511;SDS011;13414;44.534;18.700;2023-05-14T09:46:48;7.60;;;4.95;;
25511;SDS011;13414;44.534;18.700;2023-05-14T09:49:16;7.13;;;3.90;;
25511;SDS011;13414;44.534;18.700;2023-05-14T09:51:45;8.95;;;4.85;;
25511;SDS011;13414;44.534;18.700;2023-05-14T09:54:13;9.35;;;3.92;;
25511;SDS011;13414;44.534;18.700;2023-05-14T09:56:43;7.38;;;3.33;;
25511;SDS011;13414;44.534;18.700;2023-05-14T09:59:10;6.68;;;3.47;;
25511;SDS011;13414;44.534;18.700;2023-05-14T10:01:38;4.28;;;3.08;;
25511;SDS011;13414;44.534;18.700;2023-05-14T10:04:08;6.55;;;3.40;;
25511;SDS011;13414;44.534;18.700;2023-05-14T10:06:37;9.52;;;3.53;;
25511;SDS011;13414;44.534;18.700;2023-05-14T10:09:07;9.07;;;3.47;;
25511;SDS011;13414;44.534;18.700;2023-05-14T10:11:38;8.45;;;3.58;;
25511;SDS011;13414;44.534;18.700;2023-05-14T10:14:12;8.88;;;3.53;;
25511;SDS011;13414;44.534;18.700;2023-05-14T10:16:45;6.45;;;3.72;;
25511;SDS011;13414;44.534;18.700;2023-05-14T10:19:14;6.95;;;3.33;;
25511;SDS011;13414;44.534;18.700;2023-05-14T10:21:44;9.82;;;5.18;;
25511;SDS011;13414;44.534;18.700;2023-05-14T10:24:14;8.40;;;3.58;;
25511;SDS011;13414;44.534;18.700;2023-05-14T10:26:44;8.60;;;4.22;;
25511;SDS011;13414;44.534;18.700;2023-05-14T10:29:12;6.03;;;3.65;;
25511;SDS011;13414;44.534;18.700;2023-05-14T10:31:46;7.45;;;3.70;;
25511;SDS011;13414;44.534;18.700;2023-05-14T10:34:31;9.15;;;3.95;;
25511;SDS011;13414;44.534;18.700;2023-05-14T10:39:39;8.48;;;3.45;;
25511;SDS011;13414;44.534;18.700;2023-05-14T10:42:09;7.53;;;4.40;;
25511;SDS011;13414;44.534;18.700;2023-05-14T10:44:38;6.80;;;2.90;;
25511;SDS011;13414;44.534;18.700;2023-05-14T10:47:12;9.65;;;3.10;;
25511;SDS011;13414;44.534;18.700;2023-05-14T10:49:41;6.40;;;3.08;;
25511;SDS011;13414;44.534;18.700;2023-05-14T10:52:10;10.18;;;3.65;;
25511;SDS011;13414;44.534;18.700;2023-05-14T10:54:37;5.45;;;3.30;;
25511;SDS011;13414;44.534;18.700;2023-05-14T10:57:09;4.68;;;3.22;;
25511;SDS011;13414;44.534;18.700;2023-05-14T10:59:40;10.23;;;4.88;;
25511;SDS011;13414;44.534;18.700;2023-05-14T11:02:17;9.60;;;3.25;;
25511;SDS011;13414;44.534;18.700;2023-05-14T11:04:51;14.10;;;3.83;;
25511;SDS011;13414;44.534;18.700;2023-05-14T11:07:21;8.75;;;5.03;;
25511;SDS011;13414;44.534;18.700;2023-05-14T11:09:50;9.40;;;3.42;;
25511;SDS011;13414;44.534;18.700;2023-05-14T11:12:20;9.38;;;4.03;;
25511;SDS011;13414;44.534;18.700;2023-05-14T11:14:48;9.02;;;3.20;;
25511;SDS011;13414;44.534;18.700;2023-05-14T11:17:16;7.05;;;3.30;;
25511;SDS011;13414;44.534;18.700;2023-05-14T11:19:44;9.77;;;3.03;;
25511;SDS011;13414;44.534;18.700;2023-05-14T11:22:11;8.10;;;3.10;;
25511;SDS011;13414;44.534;18.700;2023-05-14T11:24:39;7.35;;;2.95;;
25511;SDS011;13414;44.534;18.700;2023-05-14T11:27:07;8.07;;;2.80;;
25511;SDS011;13414;44.534;18.700;2023-05-14T11:29:36;6.57;;;2.70;;
25511;SDS011;13414;44.534;18.700;2023-05-14T11:32:04;8.65;;;2.80;;
25511;SDS011;13414;44.534;18.700;2023-05-14T11:34:32;8.50;;;3.00;;
25511;SDS011;13414;44.534;18.700;2023-05-14T11:37:01;6.95;;;2.92;;
25511;SDS011;13414;44.534;18.700;2023-05-14T11:39:30;5.60;;;2.63;;
25511;SDS011;13414;44.534;18.700;2023-05-14T11:41:57;10.50;;;3.00;;
25511;SDS011;13414;44.534;18.700;2023-05-14T11:44:27;6.50;;;2.92;;
25511;SDS011;13414;44.534;18.700;2023-05-14T11:46:56;7.65;;;3.15;;
25511;SDS011;13414;44.534;18.700;2023-05-14T11:49:25;11.38;;;3.35;;
25511;SDS011;13414;44.534;18.700;2023-05-14T11:51:57;7.00;;;2.80;;
25511;SDS011;13414;44.534;18.700;2023-05-14T11:54:25;8.02;;;3.33;;
25511;SDS011;13414;44.534;18.700;2023-05-14T11:56:53;10.50;;;3.88;;
25511;SDS011;13414;44.534;18.700;2023-05-14T11:59:22;7.00;;;2.90;;
25511;SDS011;13414;44.534;18.700;2023-05-14T12:01:50;7.78;;;3.30;;
25511;SDS011;13414;44.534;18.700;2023-05-14T12:04:19;10.68;;;3.20;;
25511;SDS011;13414;44.534;18.700;2023-05-14T12:06:47;9.70;;;3.38;;
25511;SDS011;13414;44.534;18.700;2023-05-14T12:09:15;7.88;;;3.45;;
25511;SDS011;13414;44.534;18.700;2023-05-14T12:11:43;8.80;;;3.60;;
25511;SDS011;13414;44.534;18.700;2023-05-14T12:14:13;9.30;;;3.00;;
25511;SDS011;13414;44.534;18.700;2023-05-14T12:16:42;11.88;;;3.35;;
25511;SDS011;13414;44.534;18.700;2023-05-14T12:19:11;8.57;;;3.47;;
25511;SDS011;13414;44.534;18.700;2023-05-14T12:21:43;7.70;;;3.35;;
25511;SDS011;13414;44.534;18.700;2023-05-14T12:24:16;10.05;;;3.17;;
25511;SDS011;13414;44.534;18.700;2023-05-14T12:26:45;8.32;;;3.00;;
25511;SDS011;13414;44.534;18.700;2023-05-14T12:29:14;7.90;;;3.10;;
25511;SDS011;13414;44.534;18.700;2023-05-14T12:31:45;8.88;;;4.13;;
25511;SDS011;13414;44.534;18.700;2023-05-14T12:34:13;11.82;;;4.00;;
25511;SDS011;13414;44.534;18.700;2023-05-14T12:36:42;12.30;;;5.00;;
25511;SDS011;13414;44.534;18.700;2023-05-14T12:39:10;13.23;;;5.25;;
25511;SDS011;13414;44.534;18.700;2023-05-14T12:41:38;12.25;;;4.13;;
25511;SDS011;13414;44.534;18.700;2023-05-14T12:44:05;10.70;;;4.00;;
25511;SDS011;13414;44.534;18.700;2023-05-14T12:46:33;7.95;;;3.47;;
25511;SDS011;13414;44.534;18.700;2023-05-14T12:49:01;13.45;;;4.82;;
25511;SDS011;13414;44.534;18.700;2023-05-14T12:51:28;11.13;;;6.45;;
25511;SDS011;13414;44.534;18.700;2023-05-14T12:53:57;11.13;;;3.30;;
25511;SDS011;13414;44.534;18.700;2023-05-14T12:56:24;8.20;;;2.95;;
25511;SDS011;13414;44.534;18.700;2023-05-14T12:58:53;11.88;;;3.03;;
25511;SDS011;13414;44.534;18.700;2023-05-14T13:01:21;12.63;;;3.22;;
25511;SDS011;13414;44.534;18.700;2023-05-14T13:03:49;8.90;;;2.67;;
25511;SDS011;13414;44.534;18.700;2023-05-14T13:06:17;9.23;;;3.05;;
25511;SDS011;13414;44.534;18.700;2023-05-14T13:08:44;11.00;;;2.70;;
25511;SDS011;13414;44.534;18.700;2023-05-14T13:11:14;13.65;;;3.50;;
25511;SDS011;13414;44.534;18.700;2023-05-14T13:13:41;10.75;;;3.22;;
25511;SDS011;13414;44.534;18.700;2023-05-14T13:16:08;15.18;;;4.47;;
25511;SDS011;13414;44.534;18.700;2023-05-14T13:18:41;20.80;;;4.50;;
25511;SDS011;13414;44.534;18.700;2023-05-14T13:21:09;15.07;;;3.80;;
25511;SDS011;13414;44.534;18.700;2023-05-14T13:23:37;20.70;;;3.70;;
25511;SDS011;13414;44.534;18.700;2023-05-14T13:26:04;15.63;;;3.92;;
25511;SDS011;13414;44.534;18.700;2023-05-14T13:28:34;17.27;;;3.15;;
25511;SDS011;13414;44.534;18.700;2023-05-14T13:31:05;14.43;;;3.45;;
25511;SDS011;13414;44.534;18.700;2023-05-14T13:33:34;16.13;;;4.50;;
25511;SDS011;13414;44.534;18.700;2023-05-14T13:36:01;18.35;;;3.45;;
25511;SDS011;13414;44.534;18.700;2023-05-14T13:38:29;15.55;;;3.85;;
25511;SDS011;13414;44.534;18.700;2023-05-14T13:40:57;18.77;;;4.03;;
25511;SDS011;13414;44.534;18.700;2023-05-14T13:43:27;18.98;;;3.90;;
25511;SDS011;13414;44.534;18.700;2023-05-14T13:46:04;23.73;;;4.18;;
25511;SDS011;13414;44.534;18.700;2023-05-14T13:48:31;11.40;;;3.53;;
25511;SDS011;13414;44.534;18.700;2023-05-14T13:51:00;15.73;;;4.30;;
25511;SDS011;13414;44.534;18.700;2023-05-14T13:53:27;16.10;;;4.72;;
25511;SDS011;13414;44.534;18.700;2023-05-14T13:55:55;15.70;;;4.35;;
25511;SDS011;13414;44.534;18.700;2023-05-14T13:58:23;22.30;;;5.18;;
25511;SDS011;13414;44.534;18.700;2023-05-14T14:00:50;16.95;;;4.20;;
25511;SDS011;13414;44.534;18.700;2023-05-14T14:03:19;17.80;;;4.38;;
25511;SDS011;13414;44.534;18.700;2023-05-14T14:05:47;15.32;;;4.30;;
25511;SDS011;13414;44.534;18.700;2023-05-14T14:08:16;19.92;;;4.88;;
25511;SDS011;13414;44.534;18.700;2023-05-14T14:10:43;21.92;;;4.50;;
25511;SDS011;13414;44.534;18.700;2023-05-14T14:13:11;26.17;;;4.68;;
25511;SDS011;13414;44.534;18.700;2023-05-14T14:15:39;21.95;;;5.18;;
25511;SDS011;13414;44.534;18.700;2023-05-14T14:18:06;34.75;;;18.80;;
25511;SDS011;13414;44.534;18.700;2023-05-14T14:20:36;21.13;;;5.53;;
25511;SDS011;13414;44.534;18.700;2023-05-14T14:23:03;17.92;;;4.75;;
25511;SDS011;13414;44.534;18.700;2023-05-14T14:25:31;24.55;;;4.45;;
25511;SDS011;13414;44.534;18.700;2023-05-14T14:27:58;19.23;;;4.50;;
25511;SDS011;13414;44.534;18.700;2023-05-14T14:30:26;19.60;;;4.18;;
25511;SDS011;13414;44.534;18.700;2023-05-14T14:32:54;19.35;;;5.03;;
25511;SDS011;13414;44.534;18.700;2023-05-14T14:35:22;20.60;;;5.65;;